Time;durP1;ratioP1;P1;durP2;ratioP2;P2;SDS_P1;SDS_P2;PMS_P1;PMS_P2;Temp;Humidity;BMP_temperature;BMP_pressure;BME280_temperature;BME280_humidity;BME280_pressure;Samples;Min_cycle;Max_cycle;Signal;HPM_P1;HPM_P2
2022/01/07 00:00:16;;;;;;;7.20;5.57;;;;;;;4.29;86.65;94918.91;5037403;28;20460;-94
2022/01/07 00:02:45;;;;;;;5.27;4.77;;;;;;;4.25;86.54;94905.25;5037784;28;20473;-94
2022/01/07 00:05:12;;;;;;;5.30;4.80;;;;;;;4.24;85.83;94918.34;5056812;28;20510;-92
2022/01/07 00:07:40;;;;;;;5.40;4.97;;;;;;;4.17;85.90;94910.09;5055103;28;21036;-94
2022/01/07 00:10:09;;;;;;;6.10;5.00;;;;;;;4.22;86.19;94915.00;5041698;28;20454;-93
2022/01/07 00:12:36;;;;;;;7.70;5.43;;;;;;;4.17;86.12;94911.84;5042724;28;20454;-92
2022/01/07 00:15:04;;;;;;;8.93;5.70;;;;;;;4.17;85.75;94912.69;5040603;28;20459;-92
2022/01/07 00:17:31;;;;;;;7.33;5.30;;;;;;;4.15;86.91;94922.31;5036505;28;20487;-94
2022/01/07 00:20:00;;;;;;;5.03;4.30;;;;;;;4.11;86.01;94915.66;5036503;28;20460;-93
2022/01/07 00:22:27;;;;;;;7.37;5.20;;;;;;;4.12;86.33;94921.69;5036692;28;20478;-94
2022/01/07 00:24:54;;;;;;;5.57;4.40;;;;;;;4.18;87.06;94923.91;5036019;28;20948;-93
2022/01/07 00:27:21;;;;;;;4.57;4.10;;;;;;;4.16;86.57;94921.41;5036757;28;20455;-93
2022/01/07 00:29:48;;;;;;;5.47;4.90;;;;;;;4.16;87.18;94931.78;5036777;28;20457;-93
2022/01/07 00:35:40;;;;;;;4.30;4.00;;;;;;;4.19;86.04;94931.59;5035852;28;20451;-94
2022/01/07 00:38:07;;;;;;;4.93;4.20;;;;;;;4.13;86.25;94933.75;5036379;28;20465;-94
2022/01/07 00:40:34;;;;;;;5.70;5.20;;;;;;;4.11;86.54;94939.03;5035875;28;20512;-94
2022/01/07 00:43:01;;;;;;;4.53;4.10;;;;;;;4.08;86.41;94938.38;5036356;28;20453;-93
2022/01/07 00:45:30;;;;;;;5.13;4.63;;;;;;;4.10;87.05;94941.72;5036315;28;20446;-93
2022/01/07 00:47:58;;;;;;;4.73;4.33;;;;;;;4.14;86.54;94936.25;5036163;28;20458;-94
2022/01/07 00:50:28;;;;;;;4.57;4.27;;;;;;;4.22;85.39;94941.81;5036131;28;20940;-91
2022/01/07 00:52:57;;;;;;;5.43;5.00;;;;;;;4.25;85.95;94941.63;5035944;28;20570;-93
2022/01/07 00:55:26;;;;;;;5.67;5.17;;;;;;;4.26;85.46;94948.50;5036407;28;21002;-94
2022/01/07 00:57:57;;;;;;;7.20;4.70;;;;;;;4.19;85.29;94947.19;5035721;28;20454;-93
2022/01/07 01:00:27;;;;;;;5.10;4.60;;;;;;;4.18;85.42;94955.06;5036529;28;20448;-92
2022/01/07 01:02:56;;;;;;;8.30;6.93;;;;;;;4.25;85.95;94954.63;5035750;28;20454;-94
2022/01/07 01:05:24;;;;;;;6.70;5.50;;;;;;;4.25;85.76;94951.19;5036053;28;20516;-94
2022/01/07 01:07:51;;;;;;;5.00;4.50;;;;;;;4.28;85.38;94949.22;5036103;28;20454;-92
2022/01/07 01:10:22;;;;;;;5.47;4.57;;;;;;;4.27;85.13;94950.16;5035900;28;20460;-93
2022/01/07 01:12:49;;;;;;;7.10;5.67;;;;;;;4.28;85.74;94958.78;5035309;28;20465;-95
2022/01/07 01:15:20;;;;;;;6.37;4.43;;;;;;;4.26;85.37;94945.88;5035315;28;20469;-93
2022/01/07 01:17:47;;;;;;;5.73;5.23;;;;;;;4.18;85.74;94955.06;5035612;28;20529;-93
2022/01/07 01:23:36;;;;;;;5.50;4.40;;;;;;;4.16;85.33;94957.75;5035655;28;20895;-95
2022/01/07 01:26:07;;;;;;;5.30;4.80;;;;;;;4.12;84.96;94963.22;5035215;28;20465;-94
2022/01/07 01:28:34;;;;;;;6.07;4.80;;;;;;;4.20;85.39;94959.25;5035572;28;20944;-94
2022/01/07 01:31:01;;;;;;;5.50;4.83;;;;;;;4.19;85.20;94952.38;5035344;28;20489;-95
2022/01/07 01:33:28;;;;;;;7.60;5.10;;;;;;;4.14;85.35;94959.59;5035378;28;20482;-94
2022/01/07 01:35:55;;;;;;;4.67;4.13;;;;;;;4.06;85.21;94955.81;5035579;28;20458;-94
2022/01/07 01:38:22;;;;;;;4.93;4.53;;;;;;;4.06;85.34;94964.44;5035930;28;20454;-94
2022/01/07 01:40:49;;;;;;;6.03;5.20;;;;;;;4.13;86.02;94972.69;5035108;28;20450;-94
2022/01/07 01:43:18;;;;;;;5.33;4.73;;;;;;;4.06;85.11;94961.00;5035223;28;20963;-94
2022/01/07 01:45:45;;;;;;;5.97;5.10;;;;;;;4.09;85.49;94960.81;5036317;28;20461;-91
2022/01/07 01:48:12;;;;;;;13.37;7.10;;;;;;;4.08;85.91;94957.38;5035671;28;20815;-94
2022/01/07 01:50:39;;;;;;;7.63;5.90;;;;;;;4.06;85.51;94959.22;5035809;28;20446;-95
2022/01/07 01:53:06;;;;;;;6.73;6.13;;;;;;;4.03;85.80;94956.78;5035324;28;21009;-95
2022/01/07 01:55:33;;;;;;;6.50;5.00;;;;;;;3.99;85.98;94960.50;5035565;28;20462;-94
2022/01/07 01:58:00;;;;;;;4.53;4.07;;;;;;;4.03;86.06;94960.22;5035753;28;20454;-92
2022/01/07 02:00:29;;;;;;;7.93;5.50;;;;;;;4.02;85.55;94957.72;5037161;28;20454;-94
2022/01/07 02:02:56;;;;;;;4.60;4.13;;;;;;;3.98;86.03;94958.81;5036193;28;20456;-94
2022/01/07 02:05:23;;;;;;;6.70;3.80;;;;;;;3.94;86.29;94955.56;5035344;28;20463;-95
2022/01/07 02:07:51;;;;;;;6.13;4.33;;;;;;;3.97;86.08;94950.19;5035707;28;20452;-94
2022/01/07 02:10:18;;;;;;;6.40;5.23;;;;;;;3.99;85.26;94952.69;5053183;28;20449;-89
2022/01/07 02:12:46;;;;;;;4.80;4.40;;;;;;;4.02;85.20;94958.53;5056757;28;20518;-89
2022/01/07 02:15:14;;;;;;;7.07;5.00;;;;;;;4.04;85.32;94972.28;5046736;28;20486;-95
2022/01/07 02:17:44;;;;;;;5.60;4.57;;;;;;;3.99;85.35;94971.72;5039801;28;20850;-94
2022/01/07 02:20:14;;;;;;;5.33;4.83;;;;;;;4.01;85.91;94977.66;5038493;28;20457;-94
2022/01/07 02:22:42;;;;;;;5.57;5.07;;;;;;;4.07;85.31;94984.28;5040824;28;20460;-95
2022/01/07 02:25:10;;;;;;;5.83;5.13;;;;;;;4.16;85.18;94982.88;5042970;28;20484;-94
2022/01/07 02:27:39;;;;;;;7.20;5.20;;;;;;;4.21;85.21;94988.66;5040807;28;20521;-94
2022/01/07 02:30:08;;;;;;;4.83;4.43;;;;;;;4.08;85.13;94978.16;5038863;28;20450;-94
2022/01/07 02:32:35;;;;;;;5.30;4.57;;;;;;;4.04;85.63;94981.81;5038657;28;20954;-94
2022/01/07 02:35:03;;;;;;;5.40;5.00;;;;;;;4.00;85.66;94982.94;5038481;28;20488;-94
2022/01/07 02:37:32;;;;;;;5.80;4.50;;;;;;;3.99;86.45;94992.47;5039014;28;20457;-95
2022/01/07 02:39:59;;;;;;;5.40;4.90;;;;;;;3.94;86.60;94985.88;5038619;28;20442;-93
2022/01/07 02:42:26;;;;;;;4.87;4.37;;;;;;;3.94;85.95;94994.50;5038499;28;20453;-93
2022/01/07 02:44:54;;;;;;;4.40;4.00;;;;;;;3.92;85.92;95003.31;5038674;28;20444;-90
2022/01/07 02:47:21;;;;;;;5.63;5.07;;;;;;;3.93;85.89;95007.56;5038465;28;20453;-93
2022/01/07 02:49:48;;;;;;;4.00;3.60;;;;;;;3.81;86.19;94995.31;5038728;28;20813;-94
2022/01/07 02:52:15;;;;;;;5.10;4.60;;;;;;;3.86;86.52;95003.66;5037748;28;20964;-93
2022/01/07 02:54:44;;;;;;;5.00;4.50;;;;;;;3.74;87.14;95000.81;5038203;28;20488;-92
2022/01/07 02:57:11;;;;;;;5.37;4.80;;;;;;;3.80;86.79;95011.81;5037795;28;20456;-94
2022/01/07 02:59:38;;;;;;;5.47;4.77;;;;;;;3.80;87.28;95004.03;5037999;28;20460;-94
2022/01/07 03:02:05;;;;;;;7.07;5.20;;;;;;;3.87;86.53;95019.16;5038103;28;20458;-94
2022/01/07 03:04:32;;;;;;;7.40;5.17;;;;;;;3.85;86.47;95012.38;5038181;28;20450;-94
2022/01/07 03:06:59;;;;;;;6.20;4.53;;;;;;;3.76;86.74;95012.88;5037771;28;20458;-93
2022/01/07 03:09:26;;;;;;;7.23;4.87;;;;;;;3.79;88.25;95004.94;5038192;28;20455;-93
2022/01/07 03:11:55;;;;;;;4.73;4.13;;;;;;;3.78;86.75;95016.25;5037685;28;20464;-94
2022/01/07 03:14:25;;;;;;;5.13;4.63;;;;;;;3.71;86.26;95008.78;5037251;28;20474;-91
2022/01/07 03:16:52;;;;;;;5.60;5.00;;;;;;;3.72;86.92;95020.00;5038292;28;20786;-88
2022/01/07 03:19:19;;;;;;;6.40;4.77;;;;;;;3.65;86.95;95003.94;5037568;28;20941;-92
2022/01/07 03:21:46;;;;;;;5.03;4.53;;;;;;;3.64;86.85;95015.25;5037714;28;20545;-94
2022/01/07 03:24:13;;;;;;;5.70;4.60;;;;;;;3.72;86.52;95017.41;5037412;28;20541;-94
2022/01/07 03:26:40;;;;;;;6.20;4.83;;;;;;;3.83;86.64;95017.66;5037429;28;20881;-93
2022/01/07 03:29:08;;;;;;;6.70;4.50;;;;;;;3.87;85.80;95029.53;5037191;28;20461;-95
2022/01/07 03:31:36;;;;;;;7.97;5.10;;;;;;;4.01;85.54;95021.78;5037517;28;20545;-94
2022/01/07 03:34:03;;;;;;;5.07;4.60;;;;;;;4.07;85.54;95027.56;5037353;28;20478;-94
2022/01/07 03:36:30;;;;;;;5.17;4.43;;;;;;;4.04;85.39;95023.38;5036714;28;20439;-93
2022/01/07 03:39:00;;;;;;;5.20;4.70;;;;;;;4.01;84.96;95026.97;5037387;28;20793;-94
2022/01/07 03:41:28;;;;;;;7.07;4.63;;;;;;;3.98;85.44;95018.53;5037711;28;20446;-93
2022/01/07 03:43:55;;;;;;;6.17;5.10;;;;;;;4.00;85.38;95029.66;5037324;28;20455;-93
2022/01/07 03:46:23;;;;;;;5.30;4.80;;;;;;;3.97;85.47;95035.88;5037975;28;20585;-94
2022/01/07 03:48:50;;;;;;;6.00;5.40;;;;;;;3.97;85.19;95038.47;5036906;28;20453;-94
2022/01/07 03:51:17;;;;;;;6.40;4.57;;;;;;;3.96;86.11;95044.56;5037403;28;20453;-94
2022/01/07 03:53:45;;;;;;;7.03;5.73;;;;;;;4.02;84.94;95044.22;5037516;28;20956;-94
2022/01/07 03:56:17;;;;;;;6.80;5.63;;;;;;;4.02;85.36;95046.81;5039971;28;20454;-89
2022/01/07 03:58:45;;;;;;;9.40;7.00;;;;;;;3.97;85.13;95053.19;5059141;28;20462;-89
2022/01/07 04:01:12;;;;;;;5.73;4.50;;;;;;;4.07;85.05;95049.19;5055692;28;20460;-94
2022/01/07 04:03:40;;;;;;;11.47;6.30;;;;;;;4.13;84.75;95051.44;5045970;28;20461;-94
2022/01/07 04:06:07;;;;;;;6.27;5.63;;;;;;;4.16;84.81;95051.25;5046276;28;20971;-95
2022/01/07 04:08:34;;;;;;;7.23;5.90;;;;;;;4.22;84.15;95050.06;5042533;28;20446;-94
2022/01/07 04:11:01;;;;;;;8.00;6.40;;;;;;;4.29;84.32;95052.19;5036732;28;20456;-94
2022/01/07 04:13:28;;;;;;;7.80;5.50;;;;;;;4.30;83.59;95060.81;5037096;28;20460;-94
2022/01/07 04:15:56;;;;;;;8.27;6.60;;;;;;;4.25;83.93;95068.88;5036104;28;20488;-94
2022/01/07 04:18:24;;;;;;;6.10;5.20;;;;;;;4.27;83.86;95068.78;5036286;28;20462;-94
2022/01/07 04:20:53;;;;;;;11.03;8.00;;;;;;;4.29;83.54;95072.16;5036873;28;20454;-94
2022/01/07 04:23:20;;;;;;;12.70;7.57;;;;;;;4.19;84.25;95068.41;5036211;28;20460;-94
2022/01/07 04:25:47;;;;;;;8.10;5.60;;;;;;;4.13;83.92;95080.00;5036214;28;20455;-94
2022/01/07 04:28:14;;;;;;;8.70;6.73;;;;;;;4.17;84.50;95073.69;5036131;28;20470;-94
2022/01/07 04:30:43;;;;;;;10.33;7.87;;;;;;;4.14;83.77;95073.03;5036127;28;20461;-94
2022/01/07 04:33:14;;;;;;;9.60;7.60;;;;;;;4.10;84.34;95072.38;5035948;28;20456;-93
2022/01/07 04:35:41;;;;;;;10.57;7.33;;;;;;;4.11;84.50;95081.84;5036281;28;20576;-94
2022/01/07 04:38:11;;;;;;;10.40;7.63;;;;;;;4.08;84.54;95078.56;5036441;28;20455;-94
2022/01/07 04:40:38;;;;;;;12.23;8.30;;;;;;;4.12;84.42;95080.91;5036212;28;20462;-93
2022/01/07 04:43:06;;;;;;;13.97;8.70;;;;;;;4.21;84.43;95079.53;5036134;28;20464;-94
2022/01/07 04:45:34;;;;;;;19.90;11.37;;;;;;;4.16;83.91;95072.03;5036364;28;20508;-93
2022/01/07 04:48:02;;;;;;;18.57;10.20;;;;;;;4.17;83.39;95086.69;5035052;28;20457;-94
2022/01/07 04:50:29;;;;;;;12.97;8.40;;;;;;;4.13;84.38;95080.00;5036172;28;20504;-94
2022/01/07 04:52:57;;;;;;;11.60;9.30;;;;;;;4.13;83.98;95080.00;5036340;28;20454;-94
2022/01/07 04:55:29;;;;;;;11.10;8.20;;;;;;;4.17;84.23;95080.66;5035962;28;20529;-93
2022/01/07 04:57:57;;;;;;;14.07;7.90;;;;;;;4.27;84.39;95093.00;5035893;28;20476;-94
2022/01/07 05:00:26;;;;;;;9.23;7.50;;;;;;;4.28;84.26;95092.09;5036012;28;20550;-94
2022/01/07 05:02:53;;;;;;;7.73;6.33;;;;;;;4.30;83.79;95090.22;5035726;28;20447;-94
2022/01/07 05:05:20;;;;;;;12.07;7.73;;;;;;;4.33;84.41;95090.06;5035855;28;20545;-94
2022/01/07 05:07:47;;;;;;;9.07;7.10;;;;;;;4.37;83.96;95100.31;5035601;28;20461;-94
2022/01/07 05:10:16;;;;;;;10.40;7.03;;;;;;;4.40;84.13;95093.16;5035891;28;20542;-90
2022/01/07 05:12:45;;;;;;;9.83;6.87;;;;;;;4.49;83.20;95097.81;5035271;28;20512;-86
2022/01/07 05:15:13;;;;;;;7.80;7.10;;;;;;;4.65;83.60;95093.41;5033057;28;20449;-84
2022/01/07 05:17:40;;;;;;;7.43;6.00;;;;;;;4.69;82.65;95098.44;5036600;28;20209;-91
2022/01/07 05:20:08;;;;;;;8.70;6.83;;;;;;;4.62;82.50;95090.97;5035303;28;20446;-90
2022/01/07 05:22:35;;;;;;;7.80;6.03;;;;;;;4.63;82.44;95100.47;5035768;28;20450;-88
2022/01/07 05:25:03;;;;;;;13.57;6.30;;;;;;;4.52;82.53;95095.03;5035486;28;20455;-92
2022/01/07 05:27:30;;;;;;;9.43;7.93;;;;;;;4.53;83.22;95098.47;5035107;28;20955;-93
2022/01/07 05:29:58;;;;;;;13.27;8.13;;;;;;;4.60;82.82;95098.03;5035067;28;20454;-92
2022/01/07 05:32:25;;;;;;;10.40;7.40;;;;;;;4.56;82.94;95100.91;5035374;28;20447;-91
2022/01/07 05:34:52;;;;;;;10.37;7.13;;;;;;;4.60;82.81;95102.38;5035440;28;20478;-92
2022/01/07 05:37:19;;;;;;;13.80;8.00;;;;;;;4.65;82.45;95103.81;5035553;28;20458;-93
2022/01/07 05:39:46;;;;;;;12.50;8.87;;;;;;;4.71;82.68;95105.22;5035207;28;20441;-92
2022/01/07 05:42:13;;;;;;;20.47;10.70;;;;;;;4.65;82.39;95103.81;5035101;28;20489;-92
2022/01/07 05:44:40;;;;;;;11.33;8.67;;;;;;;4.64;82.18;95094.34;5035130;28;20459;-92
2022/01/07 05:47:09;;;;;;;24.30;9.63;;;;;;;4.69;81.61;95099.28;5035007;28;20539;-93
2022/01/07 05:49:36;;;;;;;17.20;8.60;;;;;;;4.73;82.24;95099.94;5035438;28;20897;-93
2022/01/07 05:52:03;;;;;;;9.40;7.30;;;;;;;4.75;82.09;95103.28;5034716;28;20465;-93
2022/01/07 05:54:30;;;;;;;9.23;6.73;;;;;;;4.68;81.60;95110.59;5034582;28;20487;-92
2022/01/07 05:56:57;;;;;;;12.50;9.27;;;;;;;4.70;82.23;95118.31;5034838;28;20458;-91
2022/01/07 05:59:24;;;;;;;14.93;10.30;;;;;;;4.60;81.97;95117.97;5036812;28;20461;-91
2022/01/07 06:01:51;;;;;;;22.97;13.40;;;;;;;4.55;82.49;95120.00;5039154;28;20450;-91
2022/01/07 06:04:20;;;;;;;13.37;8.57;;;;;;;4.44;83.02;95122.41;5038723;28;20457;-93
2022/01/07 06:06:47;;;;;;;11.63;8.30;;;;;;;4.37;84.01;95121.09;5037792;28;20959;-87
2022/01/07 06:09:14;;;;;;;13.33;8.80;;;;;;;4.42;84.24;95121.66;5037961;28;20454;-86
2022/01/07 06:11:41;;;;;;;11.00;7.40;;;;;;;4.46;84.94;95128.34;5038075;28;20433;-88
2022/01/07 06:14:08;;;;;;;12.70;9.40;;;;;;;4.50;84.86;95127.25;5038650;28;20541;-88
2022/01/07 06:16:35;;;;;;;14.23;11.80;;;;;;;4.52;85.54;95146.19;5037682;28;20475;-86
2022/01/07 06:19:02;;;;;;;13.10;10.00;;;;;;;4.52;87.43;95130.59;5037705;28;20979;-89
2022/01/07 06:21:30;;;;;;;17.77;10.40;;;;;;;4.48;85.12;95140.31;5038062;28;20453;-89
2022/01/07 06:34:02;;;;;;;29.63;15.77;;;;;;;4.58;83.10;95143.22;5035861;28;20457;-85
2022/01/07 06:36:31;;;;;;;19.53;10.97;;;;;;;4.61;82.87;95148.25;5037035;28;20491;-85
2022/01/07 06:38:59;;;;;;;20.10;10.57;;;;;;;4.54;83.74;95145.16;5037412;28;20434;-83
2022/01/07 06:41:26;;;;;;;17.60;10.40;;;;;;;4.48;83.27;95147.28;5036940;28;20497;-87
2022/01/07 06:43:53;;;;;;;17.63;9.80;;;;;;;4.46;83.60;95143.94;5038189;28;20450;-87
2022/01/07 06:46:20;;;;;;;20.73;9.73;;;;;;;4.55;83.85;95141.63;5032371;28;20453;-86
2022/01/07 06:48:47;;;;;;;16.70;9.60;;;;;;;4.57;83.89;95149.34;5017474;28;20455;-86
2022/01/07 06:51:14;;;;;;;12.83;9.40;;;;;;;4.68;83.75;95152.19;5020367;28;20434;-85
2022/01/07 06:53:42;;;;;;;14.37;9.27;;;;;;;4.77;83.37;95151.63;5037019;28;20483;-87
2022/01/07 06:56:09;;;;;;;18.07;11.90;;;;;;;4.81;82.46;95147.09;5036624;28;20474;-86
2022/01/07 06:58:36;;;;;;;25.13;16.03;;;;;;;4.73;82.63;95157.94;5036991;28;20465;-86
2022/01/07 07:01:05;;;;;;;33.70;15.37;;;;;;;4.71;82.38;95152.00;5036822;28;20444;-87
2022/01/07 07:03:32;;;;;;;15.17;11.83;;;;;;;4.62;82.92;95149.91;5037128;28;20811;-86
2022/01/07 07:05:59;;;;;;;26.37;11.87;;;;;;;4.52;82.88;95151.38;5037068;28;20443;-86
2022/01/07 07:08:28;;;;;;;11.50;9.97;;;;;;;4.49;83.57;95154.97;5037049;28;20446;-85
2022/01/07 07:10:57;;;;;;;14.40;10.33;;;;;;;4.52;83.03;95156.56;5035950;28;20454;-88
2022/01/07 07:13:24;;;;;;;20.63;13.87;;;;;;;4.55;83.13;95148.59;5036853;28;20457;-87
2022/01/07 07:15:51;;;;;;;18.40;13.10;;;;;;;4.61;83.49;95161.22;5036832;28;20517;-87
2022/01/07 07:18:18;;;;;;;18.27;11.17;;;;;;;4.69;83.47;95159.06;5036477;28;20439;-87
2022/01/07 07:24:19;;;;;;;15.87;10.60;;;;;;;4.86;82.69;95160.66;5036013;28;20484;-87
2022/01/07 07:26:47;;;;;;;14.00;9.53;;;;;;;4.89;83.01;95156.13;5036360;28;20533;-87
2022/01/07 07:29:14;;;;;;;17.00;11.13;;;;;;;5.05;82.09;95161.28;5036465;28;20448;-87
2022/01/07 07:31:47;;;;;;;32.50;12.23;;;;;;;5.04;82.05;95158.75;5036555;28;20522;-87
2022/01/07 07:34:33;;;;;;;12.90;9.33;;;;;;;5.07;81.01;95161.19;5036682;28;20456;-87
2022/01/07 07:37:01;;;;;;;15.13;9.80;;;;;;;5.12;81.07;95156.53;5036025;28;20478;-87
2022/01/07 07:39:28;;;;;;;19.13;9.90;;;;;;;5.15;81.60;95166.75;5036522;28;20427;-87
2022/01/07 07:41:57;;;;;;;11.23;8.90;;;;;;;5.16;81.23;95166.66;5036432;28;20454;-87
2022/01/07 07:54:29;;;;;;;10.93;9.33;;;;;;;5.24;80.59;95174.03;5024535;28;20566;-87
2022/01/07 07:56:59;;;;;;;14.83;10.40;;;;;;;5.18;80.77;95177.81;5031532;28;20496;-85
2022/01/07 07:59:26;;;;;;;16.23;12.23;;;;;;;5.18;81.23;95174.38;5021234;28;20782;-87
2022/01/07 08:01:53;;;;;;;14.13;10.53;;;;;;;5.12;79.88;95174.75;5016327;28;20847;-86
2022/01/07 08:04:21;;;;;;;14.23;10.27;;;;;;;5.13;80.87;95173.81;5015713;28;20451;-86
2022/01/07 08:06:48;;;;;;;18.30;11.70;;;;;;;5.18;80.93;95169.16;5019565;28;20821;-85
2022/01/07 08:09:15;;;;;;;18.90;11.70;;;;;;;5.19;80.69;95173.44;5022976;28;20456;-84
2022/01/07 08:11:53;;;;;;;16.47;11.47;;;;;;;5.14;80.70;95171.13;5024788;28;20446;-86
2022/01/07 08:17:07;;;;;;;22.90;13.03;;;;;;;5.10;80.83;95174.84;5015497;28;20860;-87
2022/01/07 08:19:34;;;;;;;19.33;11.27;;;;;;;5.21;80.59;95174.22;5015152;28;20444;-86
2022/01/07 08:22:02;;;;;;;16.23;11.53;;;;;;;5.25;80.13;95168.75;5015006;28;20436;-85
2022/01/07 08:24:29;;;;;;;21.93;11.80;;;;;;;5.40;80.18;95160.94;5015292;28;20507;-87
2022/01/07 08:26:56;;;;;;;19.10;12.33;;;;;;;5.47;79.59;95168.25;4981362;28;20435;-87
2022/01/07 08:35:30;;;;;;;19.80;14.53;;;;;;;5.62;79.27;95152.66;5014899;28;20837;-87
2022/01/07 08:37:57;;;;;;;13.90;10.40;;;;;;;5.57;78.03;95156.38;5015681;28;20860;-86
2022/01/07 08:40:24;;;;;;;20.03;12.33;;;;;;;5.56;78.21;95152.13;5015428;28;20439;-87
2022/01/07 08:42:52;;;;;;;18.87;11.67;;;;;;;5.60;78.40;95157.97;5015202;28;20548;-87
2022/01/07 08:45:23;;;;;;;18.47;12.80;;;;;;;5.65;78.49;95153.31;5015126;28;21023;-86
2022/01/07 08:47:52;;;;;;;19.40;12.57;;;;;;;5.62;77.81;95150.91;5015036;28;20454;-86
2022/01/07 08:50:21;;;;;;;20.10;10.50;;;;;;;5.57;77.58;95153.78;5014965;28;20457;-87
2022/01/07 08:52:47;;;;;;;19.17;11.80;;;;;;;5.58;78.49;95147.66;5015253;28;20560;-87
2022/01/07 08:55:14;;;;;;;13.73;10.23;;;;;;;5.46;78.80;95140.56;5015154;28;20484;-85
2022/01/07 08:57:41;;;;;;;14.80;10.10;;;;;;;5.46;78.84;95150.16;5015174;28;20447;-87
2022/01/07 09:00:10;;;;;;;17.70;11.77;;;;;;;5.43;78.91;95147.72;5014845;28;20450;-86
2022/01/07 09:02:37;;;;;;;16.00;11.40;;;;;;;5.42;79.13;95139.09;5015059;28;20460;-87
2022/01/07 09:05:08;;;;;;;19.07;10.60;;;;;;;5.48;79.41;95141.31;5014682;28;20456;-86
2022/01/07 09:07:35;;;;;;;17.47;11.80;;;;;;;5.45;78.96;95143.25;5015009;28;20458;-86
2022/01/07 09:10:02;;;;;;;15.67;11.50;;;;;;;5.49;79.04;95140.41;5014715;28;20448;-86
2022/01/07 09:12:29;;;;;;;17.73;11.30;;;;;;;5.58;79.66;95136.41;5014723;28;20919;-85
2022/01/07 09:14:56;;;;;;;15.13;11.67;;;;;;;5.67;78.99;95130.63;5014754;28;20471;-87
2022/01/07 09:17:23;;;;;;;16.67;12.33;;;;;;;5.72;78.61;95140.75;5014845;28;20491;-86
2022/01/07 09:19:50;;;;;;;16.90;11.90;;;;;;;5.87;78.25;95137.19;5014590;28;20457;-87
2022/01/07 09:22:19;;;;;;;25.47;14.30;;;;;;;5.95;78.24;95131.53;5014289;28;20460;-86
2022/01/07 09:24:46;;;;;;;15.30;10.80;;;;;;;6.02;78.44;95128.44;5014561;28;20442;-87
2022/01/07 09:37:38;;;;;;;16.13;10.60;;;;;;;6.09;77.47;95119.34;5037822;28;20536;-86
2022/01/07 09:40:06;;;;;;;19.13;9.80;;;;;;;6.16;76.88;95119.78;5038274;28;20451;-86
2022/01/07 09:42:33;;;;;;;16.93;9.43;;;;;;;6.29;76.02;95119.81;5038306;28;20458;-86
2022/01/07 09:45:00;;;;;;;9.07;6.90;;;;;;;6.34;74.42;95113.34;5038004;28;20466;-86
2022/01/07 09:47:28;;;;;;;15.63;7.87;;;;;;;6.48;73.75;95104.66;5038079;28;20457;-86
2022/01/07 09:50:01;;;;;;;21.43;10.40;;;;;;;6.61;74.01;95104.69;5037960;28;20564;-87
2022/01/07 09:52:28;;;;;;;16.77;9.67;;;;;;;6.73;73.68;95104.72;5037679;28;20506;-84
2022/01/07 09:54:57;;;;;;;13.37;8.93;;;;;;;6.85;72.97;95103.06;5037576;28;20477;-85
2022/01/07 09:57:24;;;;;;;11.27;7.67;;;;;;;6.95;71.79;95096.31;5037253;28;20472;-87
2022/01/07 09:59:54;;;;;;;10.07;8.27;;;;;;;7.08;71.98;95104.13;5037441;28;20442;-86
2022/01/07 10:02:25;;;;;;;11.93;8.00;;;;;;;7.09;71.02;95093.59;5037956;28;20867;-87
2022/01/07 10:04:53;;;;;;;8.27;6.50;;;;;;;7.13;70.49;95097.66;5037751;28;20590;-86
2022/01/07 10:07:21;;;;;;;12.20;7.50;;;;;;;7.17;70.64;95093.06;5038552;28;20467;-87
2022/01/07 10:10:05;;;;;;;8.70;6.97;;;;;;;7.29;70.05;95102.69;5037825;28;20439;-87
2022/01/07 10:12:34;;;;;;;10.55;8.00;;;;;;;7.38;70.99;95095.97;5037658;28;20516;-86
2022/01/07 10:15:12;;;;;;;10.03;8.10;;;;;;;7.45;69.45;95098.06;5037686;28;20211;-85
2022/01/07 10:17:39;;;;;;;15.27;9.30;;;;;;;7.50;69.27;95089.06;5038094;28;20474;-86
2022/01/07 10:20:07;;;;;;;13.33;8.90;;;;;;;7.50;68.85;95095.13;5037828;28;20788;-86
2022/01/07 10:22:51;;;;;;;14.67;9.67;;;;;;;7.50;68.73;95091.66;5037685;28;20450;-86
2022/01/07 10:25:24;;;;;;;16.47;8.13;;;;;;;7.51;69.16;95098.56;5037665;28;20435;-86
2022/01/07 10:27:52;;;;;;;10.13;7.50;;;;;;;7.51;69.22;95095.94;5037364;28;20453;-85
2022/01/07 10:30:26;;;;;;;9.57;7.83;;;;;;;7.56;68.65;95086.03;5019896;28;20457;-86
2022/01/07 10:32:53;;;;;;;17.30;8.07;;;;;;;7.46;67.47;95078.00;5029989;28;20450;-89
2022/01/07 10:35:23;;;;;;;23.83;8.43;;;;;;;7.47;68.09;95077.88;5017768;28;20444;-85
2022/01/07 10:37:53;;;;;;;12.17;8.70;;;;;;;7.36;67.74;95077.81;5016384;28;20485;-86
2022/01/07 10:40:27;;;;;;;10.87;8.10;;;;;;;7.43;68.49;95070.38;5017514;28;20458;-86
2022/01/07 10:42:56;;;;;;;14.97;8.30;;;;;;;7.46;68.50;95067.56;5017188;28;20466;-86
2022/01/07 10:45:23;;;;;;;10.83;8.17;;;;;;;7.46;68.43;95065.78;5017036;28;20500;-86
2022/01/07 10:51:14;;;;;;;12.47;8.87;;;;;;;7.44;69.10;95061.59;5015810;28;20427;-87
2022/01/07 10:53:41;;;;;;;12.53;9.10;;;;;;;7.49;68.11;95050.84;5016938;28;20482;-86
2022/01/07 10:56:12;;;;;;;14.33;9.60;;;;;;;7.54;68.44;95054.81;5017194;28;20478;-87
2022/01/07 10:59:07;;;;;;;13.40;9.63;;;;;;;7.60;68.16;95058.78;5016739;28;20454;-86
2022/01/07 11:01:42;;;;;;;17.13;9.80;;;;;;;7.61;67.97;95056.06;5016863;28;20906;-86
2022/01/07 11:04:17;;;;;;;15.47;10.10;;;;;;;7.65;68.40;95054.06;5016506;28;20481;-86
2022/01/07 11:06:45;;;;;;;15.10;10.47;;;;;;;7.69;67.90;95043.28;5016858;28;20456;-86
2022/01/07 11:09:13;;;;;;;25.53;11.43;;;;;;;7.76;67.75;95054.13;5016973;28;20454;-86
2022/01/07 11:11:53;;;;;;;14.60;10.07;;;;;;;7.82;67.24;95045.03;5016690;28;20443;-86
2022/01/07 11:14:25;;;;;;;25.73;10.47;;;;;;;7.86;67.67;95044.69;5016235;28;20469;-86
2022/01/07 11:16:53;;;;;;;13.77;8.50;;;;;;;7.81;66.08;95044.19;5016123;28;20477;-86
2022/01/07 11:19:32;;;;;;;17.20;9.17;;;;;;;7.80;65.30;95041.66;5017558;28;20457;-87
2022/01/07 11:22:00;;;;;;;15.33;10.40;;;;;;;7.77;66.19;95046.16;5016710;28;20923;-87
2022/01/07 11:24:39;;;;;;;25.73;10.40;;;;;;;7.77;66.41;95040.13;5016340;28;20438;-87
2022/01/07 11:27:10;;;;;;;30.40;15.60;;;;;;;7.77;67.03;95034.88;5016885;28;20977;-87
2022/01/07 11:29:38;;;;;;;22.10;11.33;;;;;;;7.76;66.87;95030.59;5016905;28;20458;-87
2022/01/07 11:32:32;;;;;;;24.57;11.03;;;;;;;7.71;66.38;95024.88;5016755;28;20486;-87
2022/01/07 11:35:46;;;;;;;18.70;11.87;;;;;;;7.64;66.08;95028.88;5016650;28;20542;-87
2022/01/07 11:38:32;;;;;;;18.43;10.90;;;;;;;7.65;66.81;95030.56;5016215;28;20515;-87
2022/01/07 11:41:00;;;;;;;20.33;12.20;;;;;;;7.58;66.25;95038.00;4956007;29;20460;-87
2022/01/07 11:43:34;;;;;;;17.03;11.17;;;;;;;7.94;73.06;95026.69;4955540;29;20488;-85
2022/01/07 11:46:20;;;;;;;18.63;10.23;;;;;;;7.93;68.18;95025.00;4955425;29;20434;-86
2022/01/07 11:48:47;;;;;;;18.10;11.90;;;;;;;7.99;66.83;95023.72;4955282;29;20428;-87
2022/01/07 11:51:16;;;;;;;19.47;12.60;;;;;;;8.02;65.82;95024.34;4955008;29;20454;-87
2022/01/07 11:54:06;;;;;;;15.77;11.60;;;;;;;8.06;65.61;95023.16;4954966;29;20843;-86
2022/01/07 11:56:36;;;;;;;18.60;12.20;;;;;;;8.08;65.65;95023.88;4954666;28;20486;-86
2022/01/07 11:59:26;;;;;;;16.20;12.80;;;;;;;8.08;65.09;95020.44;4955092;29;20449;-84
2022/01/07 12:02:05;;;;;;;16.27;10.80;;;;;;;7.99;64.36;95016.72;4897979;29;20455;-86
2022/01/07 12:04:34;;;;;;;17.43;10.43;;;;;;;7.92;64.69;95017.28;4898282;29;20896;-81
2022/01/07 12:07:06;;;;;;;17.77;11.20;;;;;;;7.87;64.81;95015.03;4907856;29;20467;-85
2022/01/07 12:09:38;;;;;;;17.70;9.63;;;;;;;7.78;65.19;95010.44;4916700;29;20456;-85
2022/01/07 12:12:08;;;;;;;15.83;11.10;;;;;;;7.75;65.58;95015.88;4898364;29;20491;-86
2022/01/07 12:14:39;;;;;;;18.37;10.40;;;;;;;7.70;65.06;95012.78;4881536;29;20432;-86
2022/01/07 12:17:11;;;;;;;15.80;10.03;;;;;;;7.57;65.92;95001.53;4880113;29;20489;-87
2022/01/07 12:20:19;;;;;;;15.30;9.10;;;;;;;7.59;66.37;95002.28;4954786;29;20449;-85
2022/01/07 12:22:51;;;;;;;15.80;9.07;;;;;;;7.53;66.46;95007.94;4954168;29;20484;-85
2022/01/07 12:25:18;;;;;;;14.43;10.83;;;;;;;7.32;66.68;95002.44;4954694;29;20457;-85
2022/01/07 12:27:46;;;;;;;14.80;11.67;;;;;;;7.37;67.15;95013.38;4954613;29;20452;-86
2022/01/07 12:30:14;;;;;;;25.10;13.03;;;;;;;7.16;67.75;95013.09;4954992;29;20435;-87
2022/01/07 12:32:46;;;;;;;17.60;11.10;;;;;;;7.02;67.85;95013.25;4956735;28;20456;-87
2022/01/07 12:35:13;;;;;;;16.03;11.23;;;;;;;7.11;67.63;95010.81;4973661;28;20456;-87